sensor_id;sensor_type;location;lat;lon;timestamp;temperature;humidity
33715;DHT22;20043;50.998;4.754;2023-12-22T00:01:24;10.40;99.90
33715;DHT22;20043;50.998;4.754;2023-12-22T00:03:50;10.50;99.90
33715;DHT22;20043;50.998;4.754;2023-12-22T00:06:16;10.40;99.90
33715;DHT22;20043;50.998;4.754;2023-12-22T00:08:41;10.50;99.90
33715;DHT22;20043;50.998;4.754;2023-12-22T00:11:07;10.50;99.90
33715;DHT22;20043;50.998;4.754;2023-12-22T00:13:33;10.50;99.90
33715;DHT22;20043;50.998;4.754;2023-12-22T00:15:59;10.60;99.90
33715;DHT22;20043;50.998;4.754;2023-12-22T00:18:26;10.60;99.90
33715;DHT22;20043;50.998;4.754;2023-12-22T00:20:51;10.50;99.90
33715;DHT22;20043;50.998;4.754;2023-12-22T00:23:17;10.50;99.90
33715;DHT22;20043;50.998;4.754;2023-12-22T00:25:43;10.50;99.90
33715;DHT22;20043;50.998;4.754;2023-12-22T00:28:08;10.50;99.90
33715;DHT22;20043;50.998;4.754;2023-12-22T00:30:34;10.50;99.90
33715;DHT22;20043;50.998;4.754;2023-12-22T00:33:00;10.60;99.90
33715;DHT22;20043;50.998;4.754;2023-12-22T00:35:25;10.60;99.90
33715;DHT22;20043;50.998;4.754;2023-12-22T00:37:51;10.70;99.90
33715;DHT22;20043;50.998;4.754;2023-12-22T00:40:18;10.70;99.90
33715;DHT22;20043;50.998;4.754;2023-12-22T00:42:44;10.60;99.90
33715;DHT22;20043;50.998;4.754;2023-12-22T00:45:09;10.50;99.90
33715;DHT22;20043;50.998;4.754;2023-12-22T00:47:36;10.50;99.90
33715;DHT22;20043;50.998;4.754;2023-12-22T00:50:08;10.50;99.90
33715;DHT22;20043;50.998;4.754;2023-12-22T00:52:34;10.50;99.90
33715;DHT22;20043;50.998;4.754;2023-12-22T00:55:00;10.50;99.90
33715;DHT22;20043;50.998;4.754;2023-12-22T00:57:25;10.50;99.90
33715;DHT22;20043;50.998;4.754;2023-12-22T00:59:51;10.60;99.90
33715;DHT22;20043;50.998;4.754;2023-12-22T01:02:18;10.60;99.90
33715;DHT22;20043;50.998;4.754;2023-12-22T01:04:44;10.50;99.90
33715;DHT22;20043;50.998;4.754;2023-12-22T01:07:10;10.60;99.90
33715;DHT22;20043;50.998;4.754;2023-12-22T01:09:36;10.60;99.90
33715;DHT22;20043;50.998;4.754;2023-12-22T01:12:05;10.60;99.90
33715;DHT22;20043;50.998;4.754;2023-12-22T01:14:32;10.60;99.90
33715;DHT22;20043;50.998;4.754;2023-12-22T01:16:58;10.60;99.90
33715;DHT22;20043;50.998;4.754;2023-12-22T01:19:25;10.60;99.90
33715;DHT22;20043;50.998;4.754;2023-12-22T01:21:51;10.60;99.90
33715;DHT22;20043;50.998;4.754;2023-12-22T01:24:16;10.50;99.90
33715;DHT22;20043;50.998;4.754;2023-12-22T01:26:42;10.40;99.90
33715;DHT22;20043;50.998;4.754;2023-12-22T01:29:08;10.50;99.90
33715;DHT22;20043;50.998;4.754;2023-12-22T01:31:34;10.50;99.90
33715;DHT22;20043;50.998;4.754;2023-12-22T01:33:59;10.30;99.90
33715;DHT22;20043;50.998;4.754;2023-12-22T01:36:25;10.10;99.90
33715;DHT22;20043;50.998;4.754;2023-12-22T01:38:51;9.90;99.90
33715;DHT22;20043;50.998;4.754;2023-12-22T01:41:16;9.80;99.90
33715;DHT22;20043;50.998;4.754;2023-12-22T01:43:42;9.50;99.90
33715;DHT22;20043;50.998;4.754;2023-12-22T01:46:07;9.50;99.90
33715;DHT22;20043;50.998;4.754;2023-12-22T01:48:34;9.40;99.90
33715;DHT22;20043;50.998;4.754;2023-12-22T01:51:01;9.50;99.90
33715;DHT22;20043;50.998;4.754;2023-12-22T01:53:28;9.50;99.90
33715;DHT22;20043;50.998;4.754;2023-12-22T01:55:55;9.60;99.90
33715;DHT22;20043;50.998;4.754;2023-12-22T01:58:22;9.70;99.90
33715;DHT22;20043;50.998;4.754;2023-12-22T02:00:48;9.60;99.90
33715;DHT22;20043;50.998;4.754;2023-12-22T02:03:15;9.50;99.90
33715;DHT22;20043;50.998;4.754;2023-12-22T02:05:42;9.60;99.90
33715;DHT22;20043;50.998;4.754;2023-12-22T02:08:09;9.70;99.90
33715;DHT22;20043;50.998;4.754;2023-12-22T02:10:35;9.70;99.90
33715;DHT22;20043;50.998;4.754;2023-12-22T02:13:01;9.80;99.90
33715;DHT22;20043;50.998;4.754;2023-12-22T02:15:27;9.80;99.90
33715;DHT22;20043;50.998;4.754;2023-12-22T02:20:28;9.90;99.90
33715;DHT22;20043;50.998;4.754;2023-12-22T02:22:55;9.90;99.90
33715;DHT22;20043;50.998;4.754;2023-12-22T02:25:21;9.90;99.90
33715;DHT22;20043;50.998;4.754;2023-12-22T02:28:05;9.90;99.90
33715;DHT22;20043;50.998;4.754;2023-12-22T02:30:34;10.00;99.90
33715;DHT22;20043;50.998;4.754;2023-12-22T02:33:04;10.00;99.90
33715;DHT22;20043;50.998;4.754;2023-12-22T02:35:33;10.10;99.90
33715;DHT22;20043;50.998;4.754;2023-12-22T02:38:00;10.10;99.90
33715;DHT22;20043;50.998;4.754;2023-12-22T02:40:27;10.20;99.90
33715;DHT22;20043;50.998;4.754;2023-12-22T02:42:53;10.20;99.90
33715;DHT22;20043;50.998;4.754;2023-12-22T02:45:19;10.20;99.90
33715;DHT22;20043;50.998;4.754;2023-12-22T02:47:46;10.20;99.90
33715;DHT22;20043;50.998;4.754;2023-12-22T02:50:13;10.20;99.90
33715;DHT22;20043;50.998;4.754;2023-12-22T02:52:40;10.20;99.90
33715;DHT22;20043;50.998;4.754;2023-12-22T02:55:06;10.20;99.90
33715;DHT22;20043;50.998;4.754;2023-12-22T02:57:32;10.20;99.90
33715;DHT22;20043;50.998;4.754;2023-12-22T02:59:58;10.30;99.90
33715;DHT22;20043;50.998;4.754;2023-12-22T03:02:24;10.20;99.90
33715;DHT22;20043;50.998;4.754;2023-12-22T03:04:50;10.30;99.90
33715;DHT22;20043;50.998;4.754;2023-12-22T03:07:16;10.30;99.90
33715;DHT22;20043;50.998;4.754;2023-12-22T03:09:42;10.30;99.90
33715;DHT22;20043;50.998;4.754;2023-12-22T03:12:08;10.30;99.90
33715;DHT22;20043;50.998;4.754;2023-12-22T03:14:35;10.30;99.90
33715;DHT22;20043;50.998;4.754;2023-12-22T03:17:01;10.30;99.90
33715;DHT22;20043;50.998;4.754;2023-12-22T03:19:27;10.30;99.90
33715;DHT22;20043;50.998;4.754;2023-12-22T03:21:53;10.40;99.90
33715;DHT22;20043;50.998;4.754;2023-12-22T03:24:18;10.30;99.90
33715;DHT22;20043;50.998;4.754;2023-12-22T03:26:48;10.30;99.90
33715;DHT22;20043;50.998;4.754;2023-12-22T03:29:14;10.40;99.90
33715;DHT22;20043;50.998;4.754;2023-12-22T03:31:40;10.30;99.90
33715;DHT22;20043;50.998;4.754;2023-12-22T03:34:06;10.40;99.90
33715;DHT22;20043;50.998;4.754;2023-12-22T03:36:31;10.40;99.90
33715;DHT22;20043;50.998;4.754;2023-12-22T03:38:57;10.30;99.90
33715;DHT22;20043;50.998;4.754;2023-12-22T03:41:23;10.40;99.90
33715;DHT22;20043;50.998;4.754;2023-12-22T03:43:48;10.50;99.90
33715;DHT22;20043;50.998;4.754;2023-12-22T03:46:14;10.60;99.90
33715;DHT22;20043;50.998;4.754;2023-12-22T03:48:40;10.50;99.90
33715;DHT22;20043;50.998;4.754;2023-12-22T03:51:05;10.50;99.90
33715;DHT22;20043;50.998;4.754;2023-12-22T03:53:31;10.40;99.90
33715;DHT22;20043;50.998;4.754;2023-12-22T03:55:57;10.30;99.90
33715;DHT22;20043;50.998;4.754;2023-12-22T03:58:22;10.40;99.90
33715;DHT22;20043;50.998;4.754;2023-12-22T04:00:48;10.20;99.90
33715;DHT22;20043;50.998;4.754;2023-12-22T04:03:14;10.30;99.90
33715;DHT22;20043;50.998;4.754;2023-12-22T04:05:39;10.30;99.90
33715;DHT22;20043;50.998;4.754;2023-12-22T04:08:06;10.30;99.90
33715;DHT22;20043;50.998;4.754;2023-12-22T04:10:32;10.40;99.90
33715;DHT22;20043;50.998;4.754;2023-12-22T04:12:57;10.40;99.90
33715;DHT22;20043;50.998;4.754;2023-12-22T04:15:23;10.50;99.90
33715;DHT22;20043;50.998;4.754;2023-12-22T04:17:49;10.50;99.90
33715;DHT22;20043;50.998;4.754;2023-12-22T04:20:15;10.50;99.90
33715;DHT22;20043;50.998;4.754;2023-12-22T04:22:41;10.50;99.90
33715;DHT22;20043;50.998;4.754;2023-12-22T04:25:07;10.50;99.90
33715;DHT22;20043;50.998;4.754;2023-12-22T04:27:36;10.40;99.90
33715;DHT22;20043;50.998;4.754;2023-12-22T04:30:02;10.40;99.90
33715;DHT22;20043;50.998;4.754;2023-12-22T04:32:28;10.40;99.90
33715;DHT22;20043;50.998;4.754;2023-12-22T04:34:53;10.40;99.90
33715;DHT22;20043;50.998;4.754;2023-12-22T04:37:19;10.40;99.90
33715;DHT22;20043;50.998;4.754;2023-12-22T04:39:45;10.30;99.90
33715;DHT22;20043;50.998;4.754;2023-12-22T04:42:10;10.30;99.90
33715;DHT22;20043;50.998;4.754;2023-12-22T04:44:36;10.30;99.90
33715;DHT22;20043;50.998;4.754;2023-12-22T04:47:02;10.30;99.90
33715;DHT22;20043;50.998;4.754;2023-12-22T04:49:28;10.30;99.90
33715;DHT22;20043;50.998;4.754;2023-12-22T04:51:53;10.30;99.90
33715;DHT22;20043;50.998;4.754;2023-12-22T04:54:19;10.30;99.90
33715;DHT22;20043;50.998;4.754;2023-12-22T04:56:45;10.30;99.90
33715;DHT22;20043;50.998;4.754;2023-12-22T04:59:10;10.20;99.90
33715;DHT22;20043;50.998;4.754;2023-12-22T05:01:36;10.10;99.90
33715;DHT22;20043;50.998;4.754;2023-12-22T05:04:01;10.20;99.90
33715;DHT22;20043;50.998;4.754;2023-12-22T05:06:27;10.20;99.90
33715;DHT22;20043;50.998;4.754;2023-12-22T05:08:54;10.20;99.90
33715;DHT22;20043;50.998;4.754;2023-12-22T05:11:21;10.20;99.90
33715;DHT22;20043;50.998;4.754;2023-12-22T05:13:47;10.20;99.90
33715;DHT22;20043;50.998;4.754;2023-12-22T05:16:13;10.10;99.90
33715;DHT22;20043;50.998;4.754;2023-12-22T05:18:39;10.00;99.90
33715;DHT22;20043;50.998;4.754;2023-12-22T05:21:04;10.10;99.90
33715;DHT22;20043;50.998;4.754;2023-12-22T05:23:30;10.00;99.90
33715;DHT22;20043;50.998;4.754;2023-12-22T05:25:56;10.00;99.90
33715;DHT22;20043;50.998;4.754;2023-12-22T05:28:22;10.00;99.90
33715;DHT22;20043;50.998;4.754;2023-12-22T05:30:47;10.00;99.90
33715;DHT22;20043;50.998;4.754;2023-12-22T05:33:13;10.00;99.90
33715;DHT22;20043;50.998;4.754;2023-12-22T05:35:38;10.20;99.90
33715;DHT22;20043;50.998;4.754;2023-12-22T05:38:04;10.20;99.90
33715;DHT22;20043;50.998;4.754;2023-12-22T05:40:31;10.30;99.90
33715;DHT22;20043;50.998;4.754;2023-12-22T05:43:04;10.20;99.90
33715;DHT22;20043;50.998;4.754;2023-12-22T05:45:30;10.20;99.90
33715;DHT22;20043;50.998;4.754;2023-12-22T05:47:55;10.20;99.90
33715;DHT22;20043;50.998;4.754;2023-12-22T05:50:21;10.10;99.90
33715;DHT22;20043;50.998;4.754;2023-12-22T05:52:46;10.20;99.90
33715;DHT22;20043;50.998;4.754;2023-12-22T05:55:12;10.20;99.90
33715;DHT22;20043;50.998;4.754;2023-12-22T05:57:38;10.20;99.90
33715;DHT22;20043;50.998;4.754;2023-12-22T06:00:07;10.20;99.90
33715;DHT22;20043;50.998;4.754;2023-12-22T06:02:35;10.20;99.90
33715;DHT22;20043;50.998;4.754;2023-12-22T06:05:01;10.20;99.90
33715;DHT22;20043;50.998;4.754;2023-12-22T06:07:26;10.30;99.90
33715;DHT22;20043;50.998;4.754;2023-12-22T06:09:52;10.40;99.90
33715;DHT22;20043;50.998;4.754;2023-12-22T06:12:18;10.40;99.90
33715;DHT22;20043;50.998;4.754;2023-12-22T06:14:43;10.50;99.90
33715;DHT22;20043;50.998;4.754;2023-12-22T06:17:09;10.50;99.90
33715;DHT22;20043;50.998;4.754;2023-12-22T06:19:38;10.50;99.90
33715;DHT22;20043;50.998;4.754;2023-12-22T06:22:03;10.50;99.90
33715;DHT22;20043;50.998;4.754;2023-12-22T06:24:29;10.50;99.90
33715;DHT22;20043;50.998;4.754;2023-12-22T06:26:55;10.40;99.90
33715;DHT22;20043;50.998;4.754;2023-12-22T06:29:20;10.50;99.90
33715;DHT22;20043;50.998;4.754;2023-12-22T06:31:46;10.40;99.90
33715;DHT22;20043;50.998;4.754;2023-12-22T06:34:22;10.50;99.90
33715;DHT22;20043;50.998;4.754;2023-12-22T06:36:48;10.60;99.90
33715;DHT22;20043;50.998;4.754;2023-12-22T06:39:14;10.60;99.90
33715;DHT22;20043;50.998;4.754;2023-12-22T06:41:40;10.60;99.90
33715;DHT22;20043;50.998;4.754;2023-12-22T06:44:06;10.60;99.90
33715;DHT22;20043;50.998;4.754;2023-12-22T06:46:39;10.50;99.90
33715;DHT22;20043;50.998;4.754;2023-12-22T06:49:05;10.40;99.90
33715;DHT22;20043;50.998;4.754;2023-12-22T06:51:31;10.40;99.90
33715;DHT22;20043;50.998;4.754;2023-12-22T06:53:57;10.50;99.90
33715;DHT22;20043;50.998;4.754;2023-12-22T06:56:27;10.40;99.90
33715;DHT22;20043;50.998;4.754;2023-12-22T06:58:54;10.30;99.90
33715;DHT22;20043;50.998;4.754;2023-12-22T07:01:32;10.40;99.90
33715;DHT22;20043;50.998;4.754;2023-12-22T07:03:59;10.40;99.90
33715;DHT22;20043;50.998;4.754;2023-12-22T07:06:26;10.30;99.90
33715;DHT22;20043;50.998;4.754;2023-12-22T07:11:41;10.10;99.90
33715;DHT22;20043;50.998;4.754;2023-12-22T07:14:07;10.00;99.90
33715;DHT22;20043;50.998;4.754;2023-12-22T07:16:35;9.90;99.90
33715;DHT22;20043;50.998;4.754;2023-12-22T07:19:00;9.90;99.90
33715;DHT22;20043;50.998;4.754;2023-12-22T07:21:26;10.00;99.90
33715;DHT22;20043;50.998;4.754;2023-12-22T07:23:52;10.00;99.90
33715;DHT22;20043;50.998;4.754;2023-12-22T07:26:17;10.00;99.90
33715;DHT22;20043;50.998;4.754;2023-12-22T07:28:43;10.00;99.90
33715;DHT22;20043;50.998;4.754;2023-12-22T07:31:09;10.00;99.90
33715;DHT22;20043;50.998;4.754;2023-12-22T07:33:34;9.90;99.90
33715;DHT22;20043;50.998;4.754;2023-12-22T07:36:00;10.00;99.90
33715;DHT22;20043;50.998;4.754;2023-12-22T07:38:26;10.00;99.90
33715;DHT22;20043;50.998;4.754;2023-12-22T07:40:52;9.90;99.90
33715;DHT22;20043;50.998;4.754;2023-12-22T07:43:18;9.80;99.90
33715;DHT22;20043;50.998;4.754;2023-12-22T07:45:43;9.70;99.90
33715;DHT22;20043;50.998;4.754;2023-12-22T07:48:09;9.80;99.90
33715;DHT22;20043;50.998;4.754;2023-12-22T07:50:34;9.80;99.90
33715;DHT22;20043;50.998;4.754;2023-12-22T07:53:00;9.90;99.90
33715;DHT22;20043;50.998;4.754;2023-12-22T07:55:26;9.90;99.90
33715;DHT22;20043;50.998;4.754;2023-12-22T07:57:52;9.90;99.90
33715;DHT22;20043;50.998;4.754;2023-12-22T08:00:18;10.00;99.90
33715;DHT22;20043;50.998;4.754;2023-12-22T08:02:43;10.10;99.90
33715;DHT22;20043;50.998;4.754;2023-12-22T08:05:09;10.00;99.90
33715;DHT22;20043;50.998;4.754;2023-12-22T08:07:36;10.00;99.90
33715;DHT22;20043;50.998;4.754;2023-12-22T08:10:02;9.90;99.90
33715;DHT22;20043;50.998;4.754;2023-12-22T08:12:28;10.00;99.90
33715;DHT22;20043;50.998;4.754;2023-12-22T08:14:54;10.00;99.90
33715;DHT22;20043;50.998;4.754;2023-12-22T08:17:20;10.00;99.90
33715;DHT22;20043;50.998;4.754;2023-12-22T08:19:46;9.90;99.90
33715;DHT22;20043;50.998;4.754;2023-12-22T08:22:12;10.00;99.90
33715;DHT22;20043;50.998;4.754;2023-12-22T08:24:41;10.00;99.90
33715;DHT22;20043;50.998;4.754;2023-12-22T08:27:07;9.90;99.90
33715;DHT22;20043;50.998;4.754;2023-12-22T08:29:33;10.00;99.90
33715;DHT22;20043;50.998;4.754;2023-12-22T08:31:58;10.00;99.90
33715;DHT22;20043;50.998;4.754;2023-12-22T08:34:26;10.10;99.90
33715;DHT22;20043;50.998;4.754;2023-12-22T08:36:51;10.10;99.90
33715;DHT22;20043;50.998;4.754;2023-12-22T08:39:17;10.20;99.90
33715;DHT22;20043;50.998;4.754;2023-12-22T08:41:43;10.20;99.90
33715;DHT22;20043;50.998;4.754;2023-12-22T08:44:09;10.20;99.90
33715;DHT22;20043;50.998;4.754;2023-12-22T08:46:35;10.30;99.90
33715;DHT22;20043;50.998;4.754;2023-12-22T08:49:01;10.40;99.90
33715;DHT22;20043;50.998;4.754;2023-12-22T08:51:27;10.40;99.90
33715;DHT22;20043;50.998;4.754;2023-12-22T08:53:56;10.20;99.90
33715;DHT22;20043;50.998;4.754;2023-12-22T08:56:22;10.30;99.90
33715;DHT22;20043;50.998;4.754;2023-12-22T08:58:48;10.30;99.90
33715;DHT22;20043;50.998;4.754;2023-12-22T09:01:18;10.20;99.90
33715;DHT22;20043;50.998;4.754;2023-12-22T09:03:44;10.20;99.90
33715;DHT22;20043;50.998;4.754;2023-12-22T09:06:19;10.30;99.90
33715;DHT22;20043;50.998;4.754;2023-12-22T09:08:45;10.20;99.90
33715;DHT22;20043;50.998;4.754;2023-12-22T09:11:12;10.20;99.90
33715;DHT22;20043;50.998;4.754;2023-12-22T09:13:38;10.20;99.90
33715;DHT22;20043;50.998;4.754;2023-12-22T09:16:04;10.20;99.90
33715;DHT22;20043;50.998;4.754;2023-12-22T09:18:31;10.20;99.90
33715;DHT22;20043;50.998;4.754;2023-12-22T09:20:57;10.30;99.90
33715;DHT22;20043;50.998;4.754;2023-12-22T09:23:23;10.30;99.90
33715;DHT22;20043;50.998;4.754;2023-12-22T09:25:48;10.30;99.90
33715;DHT22;20043;50.998;4.754;2023-12-22T09:28:14;10.30;99.90
33715;DHT22;20043;50.998;4.754;2023-12-22T09:30:40;10.40;99.90
33715;DHT22;20043;50.998;4.754;2023-12-22T09:33:05;10.50;99.90
33715;DHT22;20043;50.998;4.754;2023-12-22T09:35:31;10.60;99.90
33715;DHT22;20043;50.998;4.754;2023-12-22T09:37:56;10.50;99.90
33715;DHT22;20043;50.998;4.754;2023-12-22T09:40:22;10.50;99.90
33715;DHT22;20043;50.998;4.754;2023-12-22T09:42:49;10.50;99.90
33715;DHT22;20043;50.998;4.754;2023-12-22T09:45:16;10.60;99.90
33715;DHT22;20043;50.998;4.754;2023-12-22T09:47:44;10.50;99.90
33715;DHT22;20043;50.998;4.754;2023-12-22T09:50:11;10.50;99.90
33715;DHT22;20043;50.998;4.754;2023-12-22T09:52:39;10.50;99.90
33715;DHT22;20043;50.998;4.754;2023-12-22T09:55:07;10.60;99.90
33715;DHT22;20043;50.998;4.754;2023-12-22T09:57:33;10.60;99.90
33715;DHT22;20043;50.998;4.754;2023-12-22T10:00:00;10.70;99.90
33715;DHT22;20043;50.998;4.754;2023-12-22T10:02:33;10.70;99.90
33715;DHT22;20043;50.998;4.754;2023-12-22T10:04:59;10.60;99.90
33715;DHT22;20043;50.998;4.754;2023-12-22T10:07:26;10.70;99.90
33715;DHT22;20043;50.998;4.754;2023-12-22T10:09:52;10.70;99.90
33715;DHT22;20043;50.998;4.754;2023-12-22T10:12:19;10.70;99.90
33715;DHT22;20043;50.998;4.754;2023-12-22T10:14:49;10.80;99.90
33715;DHT22;20043;50.998;4.754;2023-12-22T10:17:15;10.90;99.90
33715;DHT22;20043;50.998;4.754;2023-12-22T10:19:44;11.00;99.90
33715;DHT22;20043;50.998;4.754;2023-12-22T10:22:10;11.00;99.90
33715;DHT22;20043;50.998;4.754;2023-12-22T10:24:43;11.00;99.90
33715;DHT22;20043;50.998;4.754;2023-12-22T10:27:10;11.10;99.90
33715;DHT22;20043;50.998;4.754;2023-12-22T10:29:36;11.10;99.90
33715;DHT22;20043;50.998;4.754;2023-12-22T10:32:03;11.00;99.90
33715;DHT22;20043;50.998;4.754;2023-12-22T10:34:33;11.10;99.90
33715;DHT22;20043;50.998;4.754;2023-12-22T10:37:00;11.00;99.90
33715;DHT22;20043;50.998;4.754;2023-12-22T10:39:30;11.10;99.90
33715;DHT22;20043;50.998;4.754;2023-12-22T10:41:57;11.20;99.90
33715;DHT22;20043;50.998;4.754;2023-12-22T10:44:27;11.20;99.90
33715;DHT22;20043;50.998;4.754;2023-12-22T10:46:53;11.20;99.90
33715;DHT22;20043;50.998;4.754;2023-12-22T10:49:20;11.20;99.90
33715;DHT22;20043;50.998;4.754;2023-12-22T10:51:46;11.10;99.90
33715;DHT22;20043;50.998;4.754;2023-12-22T10:54:12;11.20;99.90
33715;DHT22;20043;50.998;4.754;2023-12-22T10:56:39;11.10;99.90
33715;DHT22;20043;50.998;4.754;2023-12-22T10:59:05;11.10;99.90
33715;DHT22;20043;50.998;4.754;2023-12-22T11:01:32;11.30;99.90
33715;DHT22;20043;50.998;4.754;2023-12-22T11:04:13;11.30;99.90
33715;DHT22;20043;50.998;4.754;2023-12-22T11:06:41;11.30;99.90
33715;DHT22;20043;50.998;4.754;2023-12-22T11:09:09;11.20;99.90
33715;DHT22;20043;50.998;4.754;2023-12-22T11:11:38;11.30;99.90
33715;DHT22;20043;50.998;4.754;2023-12-22T11:14:06;11.30;99.90
33715;DHT22;20043;50.998;4.754;2023-12-22T11:16:33;11.40;99.90
33715;DHT22;20043;50.998;4.754;2023-12-22T11:19:01;11.50;99.90
33715;DHT22;20043;50.998;4.754;2023-12-22T11:21:28;11.30;99.90
33715;DHT22;20043;50.998;4.754;2023-12-22T11:23:54;11.40;99.90
33715;DHT22;20043;50.998;4.754;2023-12-22T11:26:21;11.40;99.90
33715;DHT22;20043;50.998;4.754;2023-12-22T11:28:48;11.40;99.90
33715;DHT22;20043;50.998;4.754;2023-12-22T11:31:14;11.40;99.90
33715;DHT22;20043;50.998;4.754;2023-12-22T11:33:45;11.30;99.90
33715;DHT22;20043;50.998;4.754;2023-12-22T11:36:12;11.30;99.90
33715;DHT22;20043;50.998;4.754;2023-12-22T11:38:45;11.20;99.90
33715;DHT22;20043;50.998;4.754;2023-12-22T11:41:16;11.30;99.90
33715;DHT22;20043;50.998;4.754;2023-12-22T11:43:43;11.30;99.90
33715;DHT22;20043;50.998;4.754;2023-12-22T11:46:09;11.30;99.90
33715;DHT22;20043;50.998;4.754;2023-12-22T11:48:35;11.20;99.90
33715;DHT22;20043;50.998;4.754;2023-12-22T11:51:12;11.30;99.90
33715;DHT22;20043;50.998;4.754;2023-12-22T11:53:39;11.20;99.90
33715;DHT22;20043;50.998;4.754;2023-12-22T11:56:06;11.20;99.90
33715;DHT22;20043;50.998;4.754;2023-12-22T11:58:44;11.20;99.90
33715;DHT22;20043;50.998;4.754;2023-12-22T12:01:18;11.30;99.90
33715;DHT22;20043;50.998;4.754;2023-12-22T12:03:59;11.30;99.90
33715;DHT22;20043;50.998;4.754;2023-12-22T12:08:54;11.40;99.90
33715;DHT22;20043;50.998;4.754;2023-12-22T12:11:21;11.40;99.90
33715;DHT22;20043;50.998;4.754;2023-12-22T12:13:49;11.40;99.90
33715;DHT22;20043;50.998;4.754;2023-12-22T12:16:19;11.40;99.90
33715;DHT22;20043;50.998;4.754;2023-12-22T12:18:47;11.50;99.90
33715;DHT22;20043;50.998;4.754;2023-12-22T12:21:13;11.50;99.90
33715;DHT22;20043;50.998;4.754;2023-12-22T12:23:38;11.60;99.90
33715;DHT22;20043;50.998;4.754;2023-12-22T12:26:06;11.70;99.90
33715;DHT22;20043;50.998;4.754;2023-12-22T12:28:34;11.70;99.90
33715;DHT22;20043;50.998;4.754;2023-12-22T12:31:04;11.60;99.90
33715;DHT22;20043;50.998;4.754;2023-12-22T12:33:30;11.70;99.90
33715;DHT22;20043;50.998;4.754;2023-12-22T12:35:57;11.70;99.90
33715;DHT22;20043;50.998;4.754;2023-12-22T12:41:03;11.70;99.90
33715;DHT22;20043;50.998;4.754;2023-12-22T12:43:30;11.70;99.90
33715;DHT22;20043;50.998;4.754;2023-12-22T12:46:06;11.70;99.90
33715;DHT22;20043;50.998;4.754;2023-12-22T12:48:31;11.70;99.90
33715;DHT22;20043;50.998;4.754;2023-12-22T12:51:06;11.70;99.90
33715;DHT22;20043;50.998;4.754;2023-12-22T12:53:33;11.80;99.90
33715;DHT22;20043;50.998;4.754;2023-12-22T12:56:00;11.80;99.90
33715;DHT22;20043;50.998;4.754;2023-12-22T12:58:29;11.70;99.90
33715;DHT22;20043;50.998;4.754;2023-12-22T13:01:09;11.80;99.90
33715;DHT22;20043;50.998;4.754;2023-12-22T13:03:52;11.70;99.90
33715;DHT22;20043;50.998;4.754;2023-12-22T13:06:18;11.80;99.90
33715;DHT22;20043;50.998;4.754;2023-12-22T13:08:48;11.80;99.90
33715;DHT22;20043;50.998;4.754;2023-12-22T13:11:14;11.80;99.90
33715;DHT22;20043;50.998;4.754;2023-12-22T13:13:42;11.70;99.90
33715;DHT22;20043;50.998;4.754;2023-12-22T13:16:09;11.70;99.90
33715;DHT22;20043;50.998;4.754;2023-12-22T13:18:35;11.70;99.90
33715;DHT22;20043;50.998;4.754;2023-12-22T13:21:01;11.60;99.90
33715;DHT22;20043;50.998;4.754;2023-12-22T13:23:27;11.70;99.90
33715;DHT22;20043;50.998;4.754;2023-12-22T13:25:53;11.70;99.90
33715;DHT22;20043;50.998;4.754;2023-12-22T13:28:28;11.70;99.90
33715;DHT22;20043;50.998;4.754;2023-12-22T13:30:54;11.80;99.90
33715;DHT22;20043;50.998;4.754;2023-12-22T13:33:20;11.80;99.90
33715;DHT22;20043;50.998;4.754;2023-12-22T13:35:46;11.80;99.90
33715;DHT22;20043;50.998;4.754;2023-12-22T13:38:12;11.80;99.90
33715;DHT22;20043;50.998;4.754;2023-12-22T13:40:38;11.80;99.90
33715;DHT22;20043;50.998;4.754;2023-12-22T13:43:04;11.80;99.90
33715;DHT22;20043;50.998;4.754;2023-12-22T13:45:33;11.90;99.90
33715;DHT22;20043;50.998;4.754;2023-12-22T13:47:59;11.90;99.90
33715;DHT22;20043;50.998;4.754;2023-12-22T13:50:24;11.70;99.90
33715;DHT22;20043;50.998;4.754;2023-12-22T13:52:50;11.70;99.90
33715;DHT22;20043;50.998;4.754;2023-12-22T13:55:19;11.60;99.90
33715;DHT22;20043;50.998;4.754;2023-12-22T13:57:45;11.60;99.90
33715;DHT22;20043;50.998;4.754;2023-12-22T14:02:42;11.60;99.90
33715;DHT22;20043;50.998;4.754;2023-12-22T14:05:08;11.60;99.90
33715;DHT22;20043;50.998;4.754;2023-12-22T14:07:34;11.50;99.90
33715;DHT22;20043;50.998;4.754;2023-12-22T14:10:05;11.50;99.90
33715;DHT22;20043;50.998;4.754;2023-12-22T14:12:30;11.50;99.90
33715;DHT22;20043;50.998;4.754;2023-12-22T14:14:56;11.60;99.90
33715;DHT22;20043;50.998;4.754;2023-12-22T14:17:22;11.60;99.90
33715;DHT22;20043;50.998;4.754;2023-12-22T14:19:47;11.60;99.90
33715;DHT22;20043;50.998;4.754;2023-12-22T14:22:15;11.70;99.90
33715;DHT22;20043;50.998;4.754;2023-12-22T14:24:40;11.70;99.90
33715;DHT22;20043;50.998;4.754;2023-12-22T14:27:06;11.70;99.90
33715;DHT22;20043;50.998;4.754;2023-12-22T14:29:32;11.70;99.90
33715;DHT22;20043;50.998;4.754;2023-12-22T14:31:58;11.70;99.90
33715;DHT22;20043;50.998;4.754;2023-12-22T14:34:24;11.70;99.90
33715;DHT22;20043;50.998;4.754;2023-12-22T14:36:49;11.80;99.90
33715;DHT22;20043;50.998;4.754;2023-12-22T14:39:16;11.70;99.90
33715;DHT22;20043;50.998;4.754;2023-12-22T14:41:41;11.70;99.90
33715;DHT22;20043;50.998;4.754;2023-12-22T14:44:08;11.70;99.90
33715;DHT22;20043;50.998;4.754;2023-12-22T14:46:37;11.70;99.90
33715;DHT22;20043;50.998;4.754;2023-12-22T14:49:03;11.80;99.90
33715;DHT22;20043;50.998;4.754;2023-12-22T14:51:29;11.80;99.90
33715;DHT22;20043;50.998;4.754;2023-12-22T14:53:59;11.80;99.90
33715;DHT22;20043;50.998;4.754;2023-12-22T14:56:25;11.80;99.90
33715;DHT22;20043;50.998;4.754;2023-12-22T14:58:50;11.80;99.90
33715;DHT22;20043;50.998;4.754;2023-12-22T15:01:16;11.90;99.90
33715;DHT22;20043;50.998;4.754;2023-12-22T15:03:41;11.90;99.90
33715;DHT22;20043;50.998;4.754;2023-12-22T15:06:07;11.90;99.90
33715;DHT22;20043;50.998;4.754;2023-12-22T15:08:33;11.90;99.90
33715;DHT22;20043;50.998;4.754;2023-12-22T15:10:58;11.90;99.90
33715;DHT22;20043;50.998;4.754;2023-12-22T15:13:24;11.90;99.90
33715;DHT22;20043;50.998;4.754;2023-12-22T15:15:49;12.00;99.90
33715;DHT22;20043;50.998;4.754;2023-12-22T15:18:15;12.00;99.90
33715;DHT22;20043;50.998;4.754;2023-12-22T15:20:41;12.00;99.90
33715;DHT22;20043;50.998;4.754;2023-12-22T15:23:06;12.00;99.90
33715;DHT22;20043;50.998;4.754;2023-12-22T15:25:32;12.00;99.90
33715;DHT22;20043;50.998;4.754;2023-12-22T15:27:57;12.10;99.90
33715;DHT22;20043;50.998;4.754;2023-12-22T15:30:23;11.90;99.90
33715;DHT22;20043;50.998;4.754;2023-12-22T15:32:50;11.90;99.90
33715;DHT22;20043;50.998;4.754;2023-12-22T15:35:16;12.00;99.90
33715;DHT22;20043;50.998;4.754;2023-12-22T15:37:41;11.90;99.90
33715;DHT22;20043;50.998;4.754;2023-12-22T15:40:10;12.00;99.90
33715;DHT22;20043;50.998;4.754;2023-12-22T15:42:36;12.00;99.90